Airfield :
LOGIN :

Register | Disclaimer

   EN    FR    IT 

 










Legend :    VFR   Marginal VFR   IFR   Intensive IFR   Very Intensive IFR
Visi :
Ceiling :
>= 8 km
>= 3000ft
5 to 8 km
1000 to 3000 ft
1500m to 5 km
500 to 1000 ft
800 to 1500m
200 to 500 ft
< 800m
< 200 ft
Symbols :   Thunderstorms  Fog  Heavy snow  Heavy precipitations  Wind > 20 kt
SIGMETs :     Misc.  Thunderstorms  Icing  Turbulence  Mountain Waves  Volcanic Ashes







- Airport Elevation : 459 ft
- IATA code : CER
- Download approach charts


LFRC - Cherbourg / Maupertus

CURRENT METAR :
  • 200700Z AUTO 31005KT 270V340 6000 FEW005 BKN068 OVC090 12/11 Q1012 TEMPO 1500 BR RA BKN004

EXPIRED METARs :
  • 200630Z AUTO 30005KT 270V340 5000 BR NSC 11/11 Q1012 TEMPO 1500 BR RA BKN004
  • 200600Z AUTO 30005KT 4500 BR NSC 11/11 Q1011 TEMPO 1500 BR RA BKN004
  • 200530Z AUTO 31003KT 280V340 3300 BR NSC 11/11 Q1011
  • 200500Z AUTO 30003KT 280V340 3000 BR NSC 11/11 Q1011
  • 200430Z AUTO 29004KT 3400 BR NSC 11/11 Q1011

TAF TAF LFRC
Valid from the 20 at 06:00 until the 20 at 15:00 UTC


200500Z 2006/2015 VRB05KT 5000 BR BKN040
TEMPO 2006/2009 1500 BR RA BKN004
BECMG 2009/2011 9999 NSW BKN020
PROB30
TEMPO 2009/2012 3000 BR BKN007
PROB40
TEMPO 2011/2015 4000 SHRA BKN015CB
No reported NOTAMs for that airfield.



MET'MAP, your aeronautical weather chart ! - Copyright ORBIFLY December 2007 - Disclaimer

ORBIFLY MET'MAP TEAM :

Programming & Development : Alexandra Zaïnal
Concept & Development : Baudouin d'Aumeries
Co-Development & Prog : Marc-Olivier Méhu
Technical & hardware support : Manuel Goepfert

Contact : metmap@orbifly.com




SOURCES & CREDITS :

   NOAA